sensor_id;sensor_type;location;lat;lon;timestamp;P1;durP1;ratioP1;P2;durP2;ratioP2
64244;SDS011;50584;29.058;-110.966;2023-08-06T00:00:04;20.00;;;2.78;;
64244;SDS011;50584;29.058;-110.966;2023-08-06T00:02:30;17.23;;;2.38;;
64244;SDS011;50584;29.058;-110.966;2023-08-06T00:04:56;11.85;;;2.22;;
64244;SDS011;50584;29.058;-110.966;2023-08-06T00:07:22;21.35;;;2.50;;
64244;SDS011;50584;29.058;-110.966;2023-08-06T00:09:48;10.75;;;2.20;;
64244;SDS011;50584;29.058;-110.966;2023-08-06T00:12:14;19.80;;;2.63;;
64244;SDS011;50584;29.058;-110.966;2023-08-06T00:14:39;14.68;;;2.33;;
64244;SDS011;50584;29.058;-110.966;2023-08-06T00:17:05;16.85;;;2.30;;
64244;SDS011;50584;29.058;-110.966;2023-08-06T00:19:31;11.48;;;2.15;;
64244;SDS011;50584;29.058;-110.966;2023-08-06T00:21:57;14.88;;;2.70;;
64244;SDS011;50584;29.058;-110.966;2023-08-06T00:24:23;16.17;;;2.55;;
64244;SDS011;50584;29.058;-110.966;2023-08-06T00:26:49;8.90;;;2.20;;
64244;SDS011;50584;29.058;-110.966;2023-08-06T00:29:15;9.82;;;2.00;;
64244;SDS011;50584;29.058;-110.966;2023-08-06T00:31:41;9.18;;;2.00;;
64244;SDS011;50584;29.058;-110.966;2023-08-06T00:34:06;7.90;;;2.55;;
64244;SDS011;50584;29.058;-110.966;2023-08-06T00:36:32;11.90;;;2.33;;
64244;SDS011;50584;29.058;-110.966;2023-08-06T00:38:58;5.20;;;2.08;;
64244;SDS011;50584;29.058;-110.966;2023-08-06T00:41:24;13.63;;;2.40;;
64244;SDS011;50584;29.058;-110.966;2023-08-06T00:43:49;9.23;;;2.10;;
64244;SDS011;50584;29.058;-110.966;2023-08-06T00:46:15;15.13;;;2.83;;
64244;SDS011;50584;29.058;-110.966;2023-08-06T00:48:41;8.68;;;2.25;;
64244;SDS011;50584;29.058;-110.966;2023-08-06T00:51:08;12.88;;;2.25;;
64244;SDS011;50584;29.058;-110.966;2023-08-06T00:53:34;6.97;;;2.05;;
64244;SDS011;50584;29.058;-110.966;2023-08-06T00:56:00;10.75;;;2.97;;
64244;SDS011;50584;29.058;-110.966;2023-08-06T00:58:27;11.50;;;2.60;;
64244;SDS011;50584;29.058;-110.966;2023-08-06T01:00:53;17.40;;;2.90;;
64244;SDS011;50584;29.058;-110.966;2023-08-06T01:03:19;9.65;;;1.90;;
64244;SDS011;50584;29.058;-110.966;2023-08-06T01:05:44;10.68;;;1.92;;
64244;SDS011;50584;29.058;-110.966;2023-08-06T01:10:40;16.63;;;2.30;;
64244;SDS011;50584;29.058;-110.966;2023-08-06T01:15:41;11.18;;;1.73;;
64244;SDS011;50584;29.058;-110.966;2023-08-06T01:18:08;4.00;;;1.65;;
64244;SDS011;50584;29.058;-110.966;2023-08-06T01:20:34;11.13;;;2.20;;
64244;SDS011;50584;29.058;-110.966;2023-08-06T01:23:00;13.27;;;2.20;;
64244;SDS011;50584;29.058;-110.966;2023-08-06T01:25:36;9.38;;;2.30;;
64244;SDS011;50584;29.058;-110.966;2023-08-06T01:28:14;6.07;;;1.90;;
64244;SDS011;50584;29.058;-110.966;2023-08-06T01:30:41;4.70;;;1.90;;
64244;SDS011;50584;29.058;-110.966;2023-08-06T01:33:09;8.27;;;2.15;;
64244;SDS011;50584;29.058;-110.966;2023-08-06T01:35:35;5.13;;;1.92;;
64244;SDS011;50584;29.058;-110.966;2023-08-06T01:38:02;10.57;;;2.15;;
64244;SDS011;50584;29.058;-110.966;2023-08-06T01:40:28;22.13;;;2.47;;
64244;SDS011;50584;29.058;-110.966;2023-08-06T01:42:54;5.53;;;1.92;;
64244;SDS011;50584;29.058;-110.966;2023-08-06T01:45:20;14.73;;;2.33;;
64244;SDS011;50584;29.058;-110.966;2023-08-06T01:47:46;11.43;;;2.20;;
64244;SDS011;50584;29.058;-110.966;2023-08-06T01:50:12;11.48;;;2.30;;
64244;SDS011;50584;29.058;-110.966;2023-08-06T01:52:37;9.00;;;2.20;;
64244;SDS011;50584;29.058;-110.966;2023-08-06T01:55:03;10.20;;;2.38;;
64244;SDS011;50584;29.058;-110.966;2023-08-06T01:57:29;12.07;;;2.65;;
64244;SDS011;50584;29.058;-110.966;2023-08-06T01:59:55;6.45;;;2.30;;
64244;SDS011;50584;29.058;-110.966;2023-08-06T02:02:21;6.65;;;2.38;;
64244;SDS011;50584;29.058;-110.966;2023-08-06T02:04:46;8.95;;;2.22;;
64244;SDS011;50584;29.058;-110.966;2023-08-06T02:07:12;8.02;;;2.20;;
64244;SDS011;50584;29.058;-110.966;2023-08-06T02:09:38;6.47;;;2.05;;
64244;SDS011;50584;29.058;-110.966;2023-08-06T02:12:05;9.32;;;2.30;;
64244;SDS011;50584;29.058;-110.966;2023-08-06T02:14:31;7.10;;;2.35;;
64244;SDS011;50584;29.058;-110.966;2023-08-06T02:16:57;11.02;;;2.13;;
64244;SDS011;50584;29.058;-110.966;2023-08-06T02:19:22;12.68;;;2.22;;
64244;SDS011;50584;29.058;-110.966;2023-08-06T02:21:48;8.98;;;2.20;;
64244;SDS011;50584;29.058;-110.966;2023-08-06T02:24:14;5.85;;;2.38;;
64244;SDS011;50584;29.058;-110.966;2023-08-06T02:26:40;6.97;;;1.70;;
64244;SDS011;50584;29.058;-110.966;2023-08-06T02:29:05;10.00;;;2.00;;
64244;SDS011;50584;29.058;-110.966;2023-08-06T02:31:31;10.40;;;2.15;;
64244;SDS011;50584;29.058;-110.966;2023-08-06T02:33:57;10.73;;;2.60;;
64244;SDS011;50584;29.058;-110.966;2023-08-06T02:36:23;11.10;;;2.17;;
64244;SDS011;50584;29.058;-110.966;2023-08-06T02:38:49;6.80;;;2.03;;
64244;SDS011;50584;29.058;-110.966;2023-08-06T02:41:15;4.93;;;2.65;;
64244;SDS011;50584;29.058;-110.966;2023-08-06T02:43:41;4.97;;;2.00;;
64244;SDS011;50584;29.058;-110.966;2023-08-06T02:46:06;3.30;;;1.85;;
64244;SDS011;50584;29.058;-110.966;2023-08-06T02:48:32;3.70;;;2.00;;
64244;SDS011;50584;29.058;-110.966;2023-08-06T02:50:59;5.35;;;1.80;;
64244;SDS011;50584;29.058;-110.966;2023-08-06T02:53:25;7.35;;;1.95;;
64244;SDS011;50584;29.058;-110.966;2023-08-06T02:55:50;10.90;;;2.25;;
64244;SDS011;50584;29.058;-110.966;2023-08-06T02:58:17;8.25;;;2.05;;
64244;SDS011;50584;29.058;-110.966;2023-08-06T03:00:58;6.00;;;1.90;;
64244;SDS011;50584;29.058;-110.966;2023-08-06T03:03:24;13.23;;;2.58;;
64244;SDS011;50584;29.058;-110.966;2023-08-06T03:05:53;9.50;;;1.98;;
64244;SDS011;50584;29.058;-110.966;2023-08-06T03:08:19;14.07;;;2.15;;
64244;SDS011;50584;29.058;-110.966;2023-08-06T03:10:48;6.78;;;1.95;;
64244;SDS011;50584;29.058;-110.966;2023-08-06T03:13:15;5.82;;;2.13;;
64244;SDS011;50584;29.058;-110.966;2023-08-06T03:15:40;15.40;;;2.15;;
64244;SDS011;50584;29.058;-110.966;2023-08-06T03:18:06;3.90;;;1.90;;
64244;SDS011;50584;29.058;-110.966;2023-08-06T03:20:32;6.65;;;1.98;;
64244;SDS011;50584;29.058;-110.966;2023-08-06T03:22:58;9.00;;;2.22;;
64244;SDS011;50584;29.058;-110.966;2023-08-06T03:25:23;7.30;;;1.75;;
64244;SDS011;50584;29.058;-110.966;2023-08-06T03:27:49;5.53;;;1.75;;
64244;SDS011;50584;29.058;-110.966;2023-08-06T03:30:15;5.68;;;1.67;;
64244;SDS011;50584;29.058;-110.966;2023-08-06T03:32:41;9.63;;;2.10;;
64244;SDS011;50584;29.058;-110.966;2023-08-06T03:35:07;5.78;;;2.35;;
64244;SDS011;50584;29.058;-110.966;2023-08-06T03:37:32;5.93;;;1.90;;
64244;SDS011;50584;29.058;-110.966;2023-08-06T03:39:58;13.23;;;2.00;;
64244;SDS011;50584;29.058;-110.966;2023-08-06T03:42:24;21.90;;;2.70;;
64244;SDS011;50584;29.058;-110.966;2023-08-06T03:44:52;10.45;;;2.53;;
64244;SDS011;50584;29.058;-110.966;2023-08-06T03:47:18;8.88;;;2.17;;
64244;SDS011;50584;29.058;-110.966;2023-08-06T03:49:43;8.45;;;2.40;;
64244;SDS011;50584;29.058;-110.966;2023-08-06T03:52:09;4.72;;;3.10;;
64244;SDS011;50584;29.058;-110.966;2023-08-06T03:54:35;9.00;;;3.17;;
64244;SDS011;50584;29.058;-110.966;2023-08-06T03:57:01;9.35;;;2.55;;
64244;SDS011;50584;29.058;-110.966;2023-08-06T03:59:26;4.90;;;2.15;;
64244;SDS011;50584;29.058;-110.966;2023-08-06T04:01:52;6.05;;;1.92;;
64244;SDS011;50584;29.058;-110.966;2023-08-06T04:04:18;4.85;;;2.03;;
64244;SDS011;50584;29.058;-110.966;2023-08-06T04:06:43;5.30;;;2.30;;
64244;SDS011;50584;29.058;-110.966;2023-08-06T04:09:09;5.50;;;1.90;;
64244;SDS011;50584;29.058;-110.966;2023-08-06T04:11:35;2.95;;;1.83;;
64244;SDS011;50584;29.058;-110.966;2023-08-06T04:14:01;8.10;;;2.05;;
64244;SDS011;50584;29.058;-110.966;2023-08-06T04:16:27;6.47;;;2.00;;
64244;SDS011;50584;29.058;-110.966;2023-08-06T04:18:52;6.47;;;2.28;;
64244;SDS011;50584;29.058;-110.966;2023-08-06T04:21:20;4.55;;;2.40;;
64244;SDS011;50584;29.058;-110.966;2023-08-06T04:23:46;4.82;;;1.98;;
64244;SDS011;50584;29.058;-110.966;2023-08-06T04:26:12;5.93;;;2.50;;
64244;SDS011;50584;29.058;-110.966;2023-08-06T04:28:37;4.25;;;2.30;;
64244;SDS011;50584;29.058;-110.966;2023-08-06T04:31:03;3.90;;;2.05;;
64244;SDS011;50584;29.058;-110.966;2023-08-06T04:33:29;6.45;;;1.80;;
64244;SDS011;50584;29.058;-110.966;2023-08-06T04:35:55;4.85;;;1.70;;
64244;SDS011;50584;29.058;-110.966;2023-08-06T04:38:22;5.47;;;2.63;;
64244;SDS011;50584;29.058;-110.966;2023-08-06T04:40:48;7.13;;;2.28;;
64244;SDS011;50584;29.058;-110.966;2023-08-06T04:43:14;8.60;;;2.00;;
64244;SDS011;50584;29.058;-110.966;2023-08-06T04:45:45;11.25;;;2.60;;
64244;SDS011;50584;29.058;-110.966;2023-08-06T04:48:11;9.40;;;2.25;;
64244;SDS011;50584;29.058;-110.966;2023-08-06T04:50:37;5.20;;;2.33;;
64244;SDS011;50584;29.058;-110.966;2023-08-06T04:53:02;21.77;;;2.35;;
64244;SDS011;50584;29.058;-110.966;2023-08-06T04:55:28;61.65;;;4.45;;
64244;SDS011;50584;29.058;-110.966;2023-08-06T04:57:54;3.00;;;2.08;;
64244;SDS011;50584;29.058;-110.966;2023-08-06T05:00:20;8.07;;;2.55;;
64244;SDS011;50584;29.058;-110.966;2023-08-06T05:02:45;7.30;;;2.20;;
64244;SDS011;50584;29.058;-110.966;2023-08-06T05:05:11;6.03;;;2.13;;
64244;SDS011;50584;29.058;-110.966;2023-08-06T05:07:37;8.73;;;2.20;;
64244;SDS011;50584;29.058;-110.966;2023-08-06T05:10:03;10.70;;;2.67;;
64244;SDS011;50584;29.058;-110.966;2023-08-06T05:12:29;9.50;;;2.75;;
64244;SDS011;50584;29.058;-110.966;2023-08-06T05:14:55;10.50;;;2.80;;
64244;SDS011;50584;29.058;-110.966;2023-08-06T05:17:21;7.72;;;2.38;;
64244;SDS011;50584;29.058;-110.966;2023-08-06T05:19:48;7.13;;;2.83;;
64244;SDS011;50584;29.058;-110.966;2023-08-06T05:22:14;7.72;;;2.85;;
64244;SDS011;50584;29.058;-110.966;2023-08-06T05:24:39;5.20;;;2.72;;
64244;SDS011;50584;29.058;-110.966;2023-08-06T05:27:05;33.00;;;11.00;;
64244;SDS011;50584;29.058;-110.966;2023-08-06T05:29:31;35.35;;;9.75;;
64244;SDS011;50584;29.058;-110.966;2023-08-06T05:31:57;14.40;;;5.13;;
64244;SDS011;50584;29.058;-110.966;2023-08-06T05:34:22;8.00;;;2.65;;
64244;SDS011;50584;29.058;-110.966;2023-08-06T05:36:48;41.50;;;4.00;;
64244;SDS011;50584;29.058;-110.966;2023-08-06T05:39:14;9.80;;;3.00;;
64244;SDS011;50584;29.058;-110.966;2023-08-06T05:41:40;11.07;;;3.03;;
64244;SDS011;50584;29.058;-110.966;2023-08-06T05:44:05;8.38;;;2.50;;
64244;SDS011;50584;29.058;-110.966;2023-08-06T05:46:31;9.80;;;3.85;;
64244;SDS011;50584;29.058;-110.966;2023-08-06T05:48:57;8.65;;;3.05;;
64244;SDS011;50584;29.058;-110.966;2023-08-06T05:51:23;11.27;;;2.65;;
64244;SDS011;50584;29.058;-110.966;2023-08-06T05:53:48;19.33;;;5.65;;
64244;SDS011;50584;29.058;-110.966;2023-08-06T05:56:15;7.40;;;2.70;;
64244;SDS011;50584;29.058;-110.966;2023-08-06T05:58:41;12.90;;;3.58;;
64244;SDS011;50584;29.058;-110.966;2023-08-06T06:01:09;9.00;;;2.50;;
64244;SDS011;50584;29.058;-110.966;2023-08-06T06:03:35;27.17;;;3.28;;
64244;SDS011;50584;29.058;-110.966;2023-08-06T06:06:01;34.17;;;2.67;;
64244;SDS011;50584;29.058;-110.966;2023-08-06T06:08:27;12.50;;;2.20;;
64244;SDS011;50584;29.058;-110.966;2023-08-06T06:10:53;11.10;;;1.63;;
64244;SDS011;50584;29.058;-110.966;2023-08-06T06:13:19;8.00;;;1.83;;
64244;SDS011;50584;29.058;-110.966;2023-08-06T06:15:46;31.75;;;2.22;;
64244;SDS011;50584;29.058;-110.966;2023-08-06T06:18:12;11.38;;;1.75;;
64244;SDS011;50584;29.058;-110.966;2023-08-06T06:20:38;18.83;;;3.38;;
64244;SDS011;50584;29.058;-110.966;2023-08-06T06:23:04;17.08;;;2.78;;
64244;SDS011;50584;29.058;-110.966;2023-08-06T06:25:30;11.02;;;3.13;;
64244;SDS011;50584;29.058;-110.966;2023-08-06T06:27:56;18.92;;;3.88;;
64244;SDS011;50584;29.058;-110.966;2023-08-06T06:30:21;35.78;;;4.57;;
64244;SDS011;50584;29.058;-110.966;2023-08-06T06:32:47;14.95;;;4.85;;
64244;SDS011;50584;29.058;-110.966;2023-08-06T06:35:13;31.52;;;7.30;;
64244;SDS011;50584;29.058;-110.966;2023-08-06T06:37:39;20.13;;;5.80;;
64244;SDS011;50584;29.058;-110.966;2023-08-06T06:40:05;20.23;;;4.90;;
64244;SDS011;50584;29.058;-110.966;2023-08-06T06:42:30;16.65;;;5.95;;
64244;SDS011;50584;29.058;-110.966;2023-08-06T06:44:56;23.70;;;4.85;;
64244;SDS011;50584;29.058;-110.966;2023-08-06T06:47:22;22.33;;;4.72;;
64244;SDS011;50584;29.058;-110.966;2023-08-06T06:49:48;16.25;;;3.85;;
64244;SDS011;50584;29.058;-110.966;2023-08-06T06:52:14;12.82;;;4.80;;
64244;SDS011;50584;29.058;-110.966;2023-08-06T06:54:39;7.47;;;3.50;;
64244;SDS011;50584;29.058;-110.966;2023-08-06T06:57:05;10.25;;;3.28;;
64244;SDS011;50584;29.058;-110.966;2023-08-06T06:59:31;8.07;;;3.33;;
64244;SDS011;50584;29.058;-110.966;2023-08-06T07:01:57;9.05;;;4.13;;
64244;SDS011;50584;29.058;-110.966;2023-08-06T07:04:22;11.57;;;4.10;;
64244;SDS011;50584;29.058;-110.966;2023-08-06T07:06:48;4.95;;;3.38;;
64244;SDS011;50584;29.058;-110.966;2023-08-06T07:09:14;7.10;;;3.58;;
64244;SDS011;50584;29.058;-110.966;2023-08-06T07:11:40;6.15;;;3.05;;
64244;SDS011;50584;29.058;-110.966;2023-08-06T07:14:08;7.05;;;3.15;;
64244;SDS011;50584;29.058;-110.966;2023-08-06T07:16:34;9.95;;;3.53;;
64244;SDS011;50584;29.058;-110.966;2023-08-06T07:19:00;10.52;;;3.20;;
64244;SDS011;50584;29.058;-110.966;2023-08-06T07:21:26;5.38;;;3.20;;
64244;SDS011;50584;29.058;-110.966;2023-08-06T07:23:52;5.60;;;2.85;;
64244;SDS011;50584;29.058;-110.966;2023-08-06T07:26:17;4.82;;;2.63;;
64244;SDS011;50584;29.058;-110.966;2023-08-06T07:28:43;8.93;;;2.80;;
64244;SDS011;50584;29.058;-110.966;2023-08-06T07:31:09;3.33;;;3.03;;
64244;SDS011;50584;29.058;-110.966;2023-08-06T07:33:35;4.57;;;2.85;;
64244;SDS011;50584;29.058;-110.966;2023-08-06T07:36:07;3.17;;;2.67;;
64244;SDS011;50584;29.058;-110.966;2023-08-06T07:38:33;3.28;;;2.97;;
64244;SDS011;50584;29.058;-110.966;2023-08-06T07:41:01;4.03;;;2.47;;
64244;SDS011;50584;29.058;-110.966;2023-08-06T07:43:26;4.45;;;2.78;;
64244;SDS011;50584;29.058;-110.966;2023-08-06T07:45:52;2.35;;;2.10;;
64244;SDS011;50584;29.058;-110.966;2023-08-06T07:48:18;2.35;;;2.10;;
64244;SDS011;50584;29.058;-110.966;2023-08-06T07:50:44;3.70;;;1.98;;
64244;SDS011;50584;29.058;-110.966;2023-08-06T07:53:15;10.63;;;2.40;;
64244;SDS011;50584;29.058;-110.966;2023-08-06T07:55:41;3.00;;;2.55;;
64244;SDS011;50584;29.058;-110.966;2023-08-06T07:58:07;2.38;;;2.17;;
64244;SDS011;50584;29.058;-110.966;2023-08-06T08:00:33;2.92;;;2.13;;
64244;SDS011;50584;29.058;-110.966;2023-08-06T08:02:59;3.42;;;2.25;;
64244;SDS011;50584;29.058;-110.966;2023-08-06T08:05:24;3.28;;;2.10;;
64244;SDS011;50584;29.058;-110.966;2023-08-06T08:07:50;5.93;;;2.42;;
64244;SDS011;50584;29.058;-110.966;2023-08-06T08:10:16;2.05;;;1.95;;
64244;SDS011;50584;29.058;-110.966;2023-08-06T08:12:42;4.00;;;2.22;;
64244;SDS011;50584;29.058;-110.966;2023-08-06T08:15:08;4.20;;;2.58;;
64244;SDS011;50584;29.058;-110.966;2023-08-06T08:17:34;2.70;;;2.42;;
64244;SDS011;50584;29.058;-110.966;2023-08-06T08:19:59;2.20;;;2.10;;
64244;SDS011;50584;29.058;-110.966;2023-08-06T08:22:25;3.95;;;2.50;;
64244;SDS011;50584;29.058;-110.966;2023-08-06T08:24:51;3.40;;;2.28;;
64244;SDS011;50584;29.058;-110.966;2023-08-06T08:27:17;6.63;;;3.00;;
64244;SDS011;50584;29.058;-110.966;2023-08-06T08:29:42;7.38;;;2.60;;
64244;SDS011;50584;29.058;-110.966;2023-08-06T08:32:08;4.57;;;2.60;;
64244;SDS011;50584;29.058;-110.966;2023-08-06T08:34:35;9.80;;;3.63;;
64244;SDS011;50584;29.058;-110.966;2023-08-06T08:37:01;6.63;;;3.13;;
64244;SDS011;50584;29.058;-110.966;2023-08-06T08:39:26;11.13;;;3.25;;
64244;SDS011;50584;29.058;-110.966;2023-08-06T08:41:52;4.22;;;2.38;;
64244;SDS011;50584;29.058;-110.966;2023-08-06T08:44:18;2.60;;;2.30;;
64244;SDS011;50584;29.058;-110.966;2023-08-06T08:46:44;3.35;;;2.70;;
64244;SDS011;50584;29.058;-110.966;2023-08-06T08:49:10;3.70;;;2.40;;
64244;SDS011;50584;29.058;-110.966;2023-08-06T08:51:36;3.03;;;2.83;;
64244;SDS011;50584;29.058;-110.966;2023-08-06T08:54:05;2.70;;;2.50;;
64244;SDS011;50584;29.058;-110.966;2023-08-06T08:56:33;2.72;;;2.15;;
64244;SDS011;50584;29.058;-110.966;2023-08-06T08:58:59;3.78;;;2.40;;
64244;SDS011;50584;29.058;-110.966;2023-08-06T09:01:25;3.03;;;2.13;;
64244;SDS011;50584;29.058;-110.966;2023-08-06T09:03:51;2.28;;;2.10;;
64244;SDS011;50584;29.058;-110.966;2023-08-06T09:06:17;2.35;;;2.10;;
64244;SDS011;50584;29.058;-110.966;2023-08-06T09:08:51;2.35;;;2.00;;
64244;SDS011;50584;29.058;-110.966;2023-08-06T09:11:19;3.22;;;1.80;;
64244;SDS011;50584;29.058;-110.966;2023-08-06T09:13:46;2.08;;;1.90;;
64244;SDS011;50584;29.058;-110.966;2023-08-06T09:16:12;2.95;;;2.15;;
64244;SDS011;50584;29.058;-110.966;2023-08-06T09:18:38;4.07;;;2.17;;
64244;SDS011;50584;29.058;-110.966;2023-08-06T09:21:05;3.00;;;2.53;;
64244;SDS011;50584;29.058;-110.966;2023-08-06T09:23:31;2.50;;;2.30;;
64244;SDS011;50584;29.058;-110.966;2023-08-06T09:25:58;2.28;;;2.10;;
64244;SDS011;50584;29.058;-110.966;2023-08-06T09:28:24;4.25;;;2.00;;
64244;SDS011;50584;29.058;-110.966;2023-08-06T09:30:50;2.75;;;1.95;;
64244;SDS011;50584;29.058;-110.966;2023-08-06T09:33:19;2.22;;;2.13;;
64244;SDS011;50584;29.058;-110.966;2023-08-06T09:35:45;2.35;;;2.10;;
64244;SDS011;50584;29.058;-110.966;2023-08-06T09:38:12;4.50;;;2.20;;
64244;SDS011;50584;29.058;-110.966;2023-08-06T09:40:38;2.78;;;2.42;;
64244;SDS011;50584;29.058;-110.966;2023-08-06T09:43:04;4.78;;;2.50;;
64244;SDS011;50584;29.058;-110.966;2023-08-06T09:45:33;2.63;;;2.10;;
64244;SDS011;50584;29.058;-110.966;2023-08-06T09:48:00;4.30;;;2.42;;
64244;SDS011;50584;29.058;-110.966;2023-08-06T09:50:29;2.38;;;2.28;;
64244;SDS011;50584;29.058;-110.966;2023-08-06T09:52:56;4.70;;;2.80;;
64244;SDS011;50584;29.058;-110.966;2023-08-06T09:55:23;4.38;;;2.83;;
64244;SDS011;50584;29.058;-110.966;2023-08-06T09:57:50;4.40;;;3.25;;
64244;SDS011;50584;29.058;-110.966;2023-08-06T10:00:16;5.53;;;3.20;;
64244;SDS011;50584;29.058;-110.966;2023-08-06T10:02:42;6.82;;;3.38;;
64244;SDS011;50584;29.058;-110.966;2023-08-06T10:05:08;4.13;;;2.92;;
64244;SDS011;50584;29.058;-110.966;2023-08-06T10:07:35;3.72;;;2.88;;
64244;SDS011;50584;29.058;-110.966;2023-08-06T10:10:01;4.90;;;3.00;;
64244;SDS011;50584;29.058;-110.966;2023-08-06T10:12:32;8.18;;;3.08;;
64244;SDS011;50584;29.058;-110.966;2023-08-06T10:14:59;7.57;;;3.05;;
64244;SDS011;50584;29.058;-110.966;2023-08-06T10:17:26;7.32;;;2.92;;
64244;SDS011;50584;29.058;-110.966;2023-08-06T10:19:53;3.38;;;3.00;;
64244;SDS011;50584;29.058;-110.966;2023-08-06T10:22:22;7.80;;;3.33;;
64244;SDS011;50584;29.058;-110.966;2023-08-06T10:24:55;9.13;;;3.58;;
64244;SDS011;50584;29.058;-110.966;2023-08-06T10:27:34;5.22;;;3.70;;
64244;SDS011;50584;29.058;-110.966;2023-08-06T10:32:49;3.83;;;2.95;;
64244;SDS011;50584;29.058;-110.966;2023-08-06T10:35:28;4.68;;;3.15;;
64244;SDS011;50584;29.058;-110.966;2023-08-06T10:37:58;8.68;;;3.35;;
64244;SDS011;50584;29.058;-110.966;2023-08-06T10:40:24;7.10;;;3.38;;
64244;SDS011;50584;29.058;-110.966;2023-08-06T10:42:51;5.00;;;2.80;;
64244;SDS011;50584;29.058;-110.966;2023-08-06T10:45:17;4.05;;;2.72;;
64244;SDS011;50584;29.058;-110.966;2023-08-06T10:47:44;5.28;;;2.90;;
64244;SDS011;50584;29.058;-110.966;2023-08-06T10:50:16;5.20;;;2.88;;
64244;SDS011;50584;29.058;-110.966;2023-08-06T10:52:46;2.70;;;2.60;;
64244;SDS011;50584;29.058;-110.966;2023-08-06T10:55:12;3.97;;;2.97;;
64244;SDS011;50584;29.058;-110.966;2023-08-06T10:57:38;3.00;;;2.80;;
64244;SDS011;50584;29.058;-110.966;2023-08-06T11:00:05;7.28;;;3.00;;
64244;SDS011;50584;29.058;-110.966;2023-08-06T11:02:35;4.72;;;2.60;;
64244;SDS011;50584;29.058;-110.966;2023-08-06T11:05:07;5.50;;;2.93;;
64244;SDS011;50584;29.058;-110.966;2023-08-06T11:07:33;5.55;;;2.83;;
64244;SDS011;50584;29.058;-110.966;2023-08-06T11:10:03;6.55;;;2.60;;
64244;SDS011;50584;29.058;-110.966;2023-08-06T11:12:29;5.97;;;2.80;;
64244;SDS011;50584;29.058;-110.966;2023-08-06T11:14:55;4.32;;;2.53;;
64244;SDS011;50584;29.058;-110.966;2023-08-06T11:17:21;5.63;;;2.92;;
64244;SDS011;50584;29.058;-110.966;2023-08-06T11:19:47;3.83;;;2.75;;
64244;SDS011;50584;29.058;-110.966;2023-08-06T11:22:14;3.80;;;2.22;;
64244;SDS011;50584;29.058;-110.966;2023-08-06T11:24:39;4.70;;;2.85;;
64244;SDS011;50584;29.058;-110.966;2023-08-06T11:27:15;2.78;;;2.58;;
64244;SDS011;50584;29.058;-110.966;2023-08-06T11:29:41;2.53;;;2.20;;
64244;SDS011;50584;29.058;-110.966;2023-08-06T11:32:07;2.50;;;2.40;;
64244;SDS011;50584;29.058;-110.966;2023-08-06T11:34:33;2.70;;;2.55;;
64244;SDS011;50584;29.058;-110.966;2023-08-06T11:36:59;3.03;;;2.65;;
64244;SDS011;50584;29.058;-110.966;2023-08-06T11:39:25;7.10;;;2.70;;
64244;SDS011;50584;29.058;-110.966;2023-08-06T11:41:51;3.50;;;2.78;;
64244;SDS011;50584;29.058;-110.966;2023-08-06T11:44:20;3.75;;;2.53;;
64244;SDS011;50584;29.058;-110.966;2023-08-06T11:46:54;4.35;;;2.70;;
64244;SDS011;50584;29.058;-110.966;2023-08-06T11:49:45;4.40;;;2.58;;
64244;SDS011;50584;29.058;-110.966;2023-08-06T11:52:16;3.03;;;2.72;;
64244;SDS011;50584;29.058;-110.966;2023-08-06T11:54:44;6.55;;;3.22;;
64244;SDS011;50584;29.058;-110.966;2023-08-06T11:57:10;6.28;;;2.83;;
64244;SDS011;50584;29.058;-110.966;2023-08-06T11:59:37;3.75;;;2.42;;
64244;SDS011;50584;29.058;-110.966;2023-08-06T12:02:04;4.10;;;2.70;;
64244;SDS011;50584;29.058;-110.966;2023-08-06T12:07:17;3.08;;;2.35;;
64244;SDS011;50584;29.058;-110.966;2023-08-06T12:09:43;2.50;;;2.30;;
64244;SDS011;50584;29.058;-110.966;2023-08-06T12:12:09;5.30;;;2.90;;
64244;SDS011;50584;29.058;-110.966;2023-08-06T12:14:36;2.40;;;2.20;;
64244;SDS011;50584;29.058;-110.966;2023-08-06T12:17:02;2.30;;;2.10;;
64244;SDS011;50584;29.058;-110.966;2023-08-06T12:19:27;3.28;;;2.40;;
64244;SDS011;50584;29.058;-110.966;2023-08-06T12:21:55;4.43;;;2.30;;
64244;SDS011;50584;29.058;-110.966;2023-08-06T12:24:21;3.75;;;2.25;;
64244;SDS011;50584;29.058;-110.966;2023-08-06T12:26:47;2.50;;;2.30;;
64244;SDS011;50584;29.058;-110.966;2023-08-06T12:29:12;2.55;;;2.20;;
64244;SDS011;50584;29.058;-110.966;2023-08-06T12:31:38;5.35;;;2.30;;
64244;SDS011;50584;29.058;-110.966;2023-08-06T12:34:04;2.88;;;2.10;;
64244;SDS011;50584;29.058;-110.966;2023-08-06T12:36:30;2.00;;;1.90;;
64244;SDS011;50584;29.058;-110.966;2023-08-06T12:38:55;2.05;;;1.90;;
64244;SDS011;50584;29.058;-110.966;2023-08-06T12:41:21;2.53;;;2.30;;
64244;SDS011;50584;29.058;-110.966;2023-08-06T12:43:47;2.53;;;2.25;;
64244;SDS011;50584;29.058;-110.966;2023-08-06T12:46:13;2.30;;;2.10;;
64244;SDS011;50584;29.058;-110.966;2023-08-06T12:48:38;2.92;;;1.90;;
64244;SDS011;50584;29.058;-110.966;2023-08-06T12:51:04;3.42;;;2.33;;
64244;SDS011;50584;29.058;-110.966;2023-08-06T12:53:30;3.63;;;2.13;;
64244;SDS011;50584;29.058;-110.966;2023-08-06T12:55:56;6.72;;;2.35;;
64244;SDS011;50584;29.058;-110.966;2023-08-06T12:58:22;3.60;;;2.10;;
64244;SDS011;50584;29.058;-110.966;2023-08-06T13:00:48;3.70;;;2.22;;
64244;SDS011;50584;29.058;-110.966;2023-08-06T13:03:14;4.43;;;2.20;;
64244;SDS011;50584;29.058;-110.966;2023-08-06T13:05:39;5.30;;;2.40;;
64244;SDS011;50584;29.058;-110.966;2023-08-06T13:08:05;2.75;;;2.17;;
64244;SDS011;50584;29.058;-110.966;2023-08-06T13:10:31;6.32;;;2.30;;
64244;SDS011;50584;29.058;-110.966;2023-08-06T13:12:57;2.63;;;2.10;;
64244;SDS011;50584;29.058;-110.966;2023-08-06T13:15:22;5.40;;;2.30;;
64244;SDS011;50584;29.058;-110.966;2023-08-06T13:17:48;2.45;;;1.80;;
64244;SDS011;50584;29.058;-110.966;2023-08-06T13:20:14;5.07;;;2.60;;
64244;SDS011;50584;29.058;-110.966;2023-08-06T13:22:40;4.88;;;2.53;;
64244;SDS011;50584;29.058;-110.966;2023-08-06T13:25:06;3.83;;;2.15;;
64244;SDS011;50584;29.058;-110.966;2023-08-06T13:27:31;5.97;;;2.00;;
64244;SDS011;50584;29.058;-110.966;2023-08-06T13:29:57;3.28;;;1.90;;
64244;SDS011;50584;29.058;-110.966;2023-08-06T13:32:23;2.20;;;2.00;;
64244;SDS011;50584;29.058;-110.966;2023-08-06T13:34:49;2.30;;;2.10;;
64244;SDS011;50584;29.058;-110.966;2023-08-06T13:37:15;3.38;;;1.90;;
64244;SDS011;50584;29.058;-110.966;2023-08-06T13:39:40;1.77;;;1.63;;
64244;SDS011;50584;29.058;-110.966;2023-08-06T13:42:06;2.88;;;2.10;;
64244;SDS011;50584;29.058;-110.966;2023-08-06T13:44:32;5.28;;;1.90;;
64244;SDS011;50584;29.058;-110.966;2023-08-06T13:47:01;4.25;;;2.08;;
64244;SDS011;50584;29.058;-110.966;2023-08-06T13:49:27;2.25;;;1.92;;
64244;SDS011;50584;29.058;-110.966;2023-08-06T13:51:53;3.63;;;1.90;;
64244;SDS011;50584;29.058;-110.966;2023-08-06T13:54:19;3.13;;;2.03;;
64244;SDS011;50584;29.058;-110.966;2023-08-06T13:56:46;2.53;;;1.70;;
64244;SDS011;50584;29.058;-110.966;2023-08-06T13:59:12;1.75;;;1.65;;
64244;SDS011;50584;29.058;-110.966;2023-08-06T14:01:39;5.25;;;2.10;;
64244;SDS011;50584;29.058;-110.966;2023-08-06T14:04:05;3.17;;;2.05;;
64244;SDS011;50584;29.058;-110.966;2023-08-06T14:06:31;4.70;;;1.98;;
64244;SDS011;50584;29.058;-110.966;2023-08-06T14:08:56;4.35;;;1.73;;
64244;SDS011;50584;29.058;-110.966;2023-08-06T14:11:22;3.53;;;1.50;;